Time;durP1;ratioP1;P1;durP2;ratioP2;P2;SDS_P1;SDS_P2;PMS_P1;PMS_P2;Temp;Humidity;BMP_temperature;BMP_pressure;BME280_temperature;BME280_humidity;BME280_pressure;Samples;Min_cycle;Max_cycle;Signal;HPM_P1;HPM_P2
2021/09/29 00:01:08;;;;;;;5.38;4.88;;;16.80;79.70;;;;;;5034304;28;20215;-86
2021/09/29 00:03:34;;;;;;;5.38;4.97;;;16.80;79.30;;;;;;5036790;28;20652;-85
2021/09/29 00:06:00;;;;;;;6.18;4.97;;;16.80;79.10;;;;;;5034674;28;20204;-85
2021/09/29 00:08:26;;;;;;;6.47;5.20;;;16.80;78.70;;;;;;5034510;28;20207;-85
2021/09/29 00:10:52;;;;;;;5.82;5.30;;;16.80;78.60;;;;;;5018923;28;20208;-85
2021/09/29 00:13:19;;;;;;;5.10;4.70;;;16.70;79.00;;;;;;5034825;28;20212;-86
2021/09/29 00:15:45;;;;;;;5.45;4.80;;;16.60;79.60;;;;;;5035653;28;20324;-86
2021/09/29 00:18:11;;;;;;;5.10;4.50;;;16.60;79.70;;;;;;5043483;28;20202;-85
2021/09/29 00:20:36;;;;;;;7.95;5.38;;;16.50;80.00;;;;;;5042472;28;20243;-85
2021/09/29 00:23:02;;;;;;;4.80;4.40;;;16.40;80.20;;;;;;5049840;28;20219;-85
2021/09/29 00:25:28;;;;;;;5.03;4.63;;;16.40;81.60;;;;;;5025930;28;20203;-86
2021/09/29 00:27:53;;;;;;;5.70;5.20;;;16.30;81.30;;;;;;5038118;28;20549;-86
2021/09/29 00:30:20;;;;;;;6.73;5.27;;;16.10;82.80;;;;;;5032908;28;20902;-86
2021/09/29 00:32:45;;;;;;;5.57;5.07;;;15.80;83.70;;;;;;5034905;28;20204;-86
2021/09/29 00:35:14;;;;;;;9.67;5.73;;;15.80;84.30;;;;;;5018491;28;20275;-85
2021/09/29 00:37:40;;;;;;;8.80;5.40;;;15.70;84.20;;;;;;5033445;28;20217;-84
2021/09/29 00:40:07;;;;;;;6.77;5.87;;;15.70;84.20;;;;;;5031683;28;20212;-87
2021/09/29 00:42:33;;;;;;;6.07;5.47;;;15.60;84.60;;;;;;5039854;28;20196;-87
2021/09/29 00:44:58;;;;;;;6.20;5.70;;;15.60;85.00;;;;;;5034950;28;20191;-87
2021/09/29 00:47:27;;;;;;;8.37;5.53;;;15.60;84.40;;;;;;5032832;28;20231;-86
2021/09/29 00:49:53;;;;;;;6.60;5.60;;;15.60;84.60;;;;;;5017617;28;20286;-86
2021/09/29 00:52:18;;;;;;;6.37;5.77;;;15.60;84.00;;;;;;5041635;28;20436;-83
2021/09/29 00:54:44;;;;;;;6.57;5.93;;;15.70;84.10;;;;;;5029431;28;20204;-84
2021/09/29 00:57:10;;;;;;;6.00;5.50;;;15.80;84.10;;;;;;5024860;28;20625;-86
2021/09/29 00:59:37;;;;;;;5.57;5.17;;;15.80;83.50;;;;;;5035224;28;20234;-87
2021/09/29 01:02:03;;;;;;;6.13;5.47;;;15.90;83.60;;;;;;5015761;28;20197;-87
2021/09/29 01:04:30;;;;;;;6.10;5.60;;;15.90;82.70;;;;;;5014641;28;20190;-87
2021/09/29 01:07:14;;;;;;;6.07;5.47;;;15.90;83.30;;;;;;5034869;28;20231;-87
2021/09/29 01:10:05;;;;;;;11.53;5.80;;;15.90;83.10;;;;;;5035329;28;20304;-84
2021/09/29 01:12:51;;;;;;;7.00;6.07;;;15.90;83.30;;;;;;5035548;28;20424;-84
2021/09/29 01:15:29;;;;;;;6.70;5.97;;;15.90;83.00;;;;;;5032323;28;20197;-87
2021/09/29 01:18:00;;;;;;;6.33;5.73;;;15.80;83.00;;;;;;5031733;28;20545;-87
2021/09/29 01:20:36;;;;;;;6.87;6.27;;;15.80;83.20;;;;;;5018682;28;20205;-87
2021/09/29 01:23:10;;;;;;;6.83;6.23;;;15.70;83.50;;;;;;5034089;28;20195;-87
2021/09/29 01:25:57;;;;;;;8.83;7.10;;;15.50;84.10;;;;;;5032933;28;20217;-87
2021/09/29 01:28:42;;;;;;;7.50;6.67;;;15.40;84.80;;;;;;5002708;28;20197;-87
2021/09/29 01:31:08;;;;;;;7.00;6.47;;;15.50;84.70;;;;;;5033523;28;20203;-87
2021/09/29 01:33:36;;;;;;;7.50;6.73;;;15.50;85.00;;;;;;5034133;28;20192;-87
2021/09/29 01:36:03;;;;;;;7.60;6.90;;;15.40;85.10;;;;;;5036630;28;20236;-86
2021/09/29 01:38:31;;;;;;;7.20;6.30;;;15.30;86.00;;;;;;5039187;28;20231;-87
2021/09/29 01:40:57;;;;;;;7.63;7.03;;;15.30;85.70;;;;;;5037373;28;20219;-87
2021/09/29 01:43:23;;;;;;;7.77;6.80;;;15.30;86.00;;;;;;5036549;28;20187;-86
2021/09/29 01:45:49;;;;;;;7.53;6.77;;;15.20;86.30;;;;;;5037747;28;20197;-84
2021/09/29 01:48:16;;;;;;;7.77;7.07;;;15.10;86.60;;;;;;5037360;28;20242;-86
2021/09/29 01:50:45;;;;;;;9.83;7.53;;;14.90;87.70;;;;;;5035220;28;20224;-87
2021/09/29 01:53:11;;;;;;;7.83;6.73;;;14.80;88.40;;;;;;5025949;28;20198;-87
2021/09/29 01:55:38;;;;;;;10.07;7.60;;;14.80;88.00;;;;;;5038702;28;20214;-87
2021/09/29 01:58:05;;;;;;;8.30;7.50;;;14.80;88.00;;;;;;5036529;28;20242;-87
2021/09/29 02:00:31;;;;;;;9.67;8.33;;;14.80;88.50;;;;;;5018552;28;20213;-87
2021/09/29 02:02:59;;;;;;;9.17;8.27;;;14.80;88.40;;;;;;5053989;28;20190;-86
2021/09/29 02:05:33;;;;;;;10.17;8.50;;;14.70;88.80;;;;;;5043272;28;20221;-86
2021/09/29 02:08:01;;;;;;;9.90;8.90;;;14.60;89.30;;;;;;5039628;28;20187;-87
2021/09/29 02:10:28;;;;;;;10.43;9.07;;;14.60;89.50;;;;;;5037342;28;20263;-86
2021/09/29 02:12:54;;;;;;;9.80;8.87;;;14.50;89.80;;;;;;5041706;28;20196;-86
2021/09/29 02:15:21;;;;;;;10.30;8.70;;;14.50;90.00;;;;;;5051593;28;20730;-85
2021/09/29 02:17:48;;;;;;;9.27;8.50;;;14.50;89.40;;;;;;5052722;28;20204;-86
2021/09/29 02:20:14;;;;;;;10.90;8.70;;;14.50;89.00;;;;;;5047743;28;20225;-86
2021/09/29 02:22:40;;;;;;;9.10;8.30;;;14.50;88.70;;;;;;5038381;28;20200;-86
2021/09/29 02:25:08;;;;;;;10.03;9.07;;;14.40;88.60;;;;;;5039081;28;20280;-87
2021/09/29 02:27:33;;;;;;;10.73;8.83;;;14.40;88.70;;;;;;5039056;28;20197;-87
2021/09/29 02:30:00;;;;;;;12.23;9.33;;;14.40;88.70;;;;;;5038567;28;20224;-86
2021/09/29 02:32:25;;;;;;;9.73;8.73;;;14.30;89.00;;;;;;5037233;28;20235;-86
2021/09/29 02:34:51;;;;;;;10.93;8.53;;;14.30;88.60;;;;;;5037458;28;20674;-86
2021/09/29 02:37:17;;;;;;;8.80;7.90;;;14.30;88.60;;;;;;5038540;28;20224;-86
2021/09/29 02:39:42;;;;;;;10.47;8.70;;;14.30;88.40;;;;;;5036827;28;20227;-87
2021/09/29 02:42:09;;;;;;;9.70;8.33;;;14.30;88.40;;;;;;5020344;28;20218;-86
2021/09/29 02:44:34;;;;;;;8.83;7.93;;;14.30;88.50;;;;;;5029904;28;20664;-85
2021/09/29 02:47:00;;;;;;;11.33;8.80;;;14.20;89.30;;;;;;5040340;28;20203;-86
2021/09/29 02:49:26;;;;;;;9.50;8.57;;;14.30;89.60;;;;;;5046742;28;20181;-86
2021/09/29 02:51:53;;;;;;;9.50;8.53;;;14.30;89.30;;;;;;5049238;28;20192;-86
2021/09/29 02:54:19;;;;;;;9.07;8.17;;;14.40;89.20;;;;;;5066695;28;20252;-86
2021/09/29 02:56:45;;;;;;;9.37;8.47;;;14.40;89.10;;;;;;5045426;28;20219;-86
2021/09/29 02:59:10;;;;;;;10.27;8.23;;;14.40;89.20;;;;;;5021263;28;20217;-86
2021/09/29 03:01:39;;;;;;;9.27;7.73;;;14.30;89.80;;;;;;5020638;28;20563;-86
2021/09/29 03:04:06;;;;;;;10.40;7.87;;;14.40;89.70;;;;;;5036520;28;20276;-87
2021/09/29 03:06:32;;;;;;;9.57;7.77;;;14.40;89.40;;;;;;5019032;28;20212;-86
2021/09/29 03:08:57;;;;;;;9.83;8.17;;;14.40;89.40;;;;;;5022304;28;20196;-86
2021/09/29 03:11:23;;;;;;;9.17;8.37;;;14.30;89.60;;;;;;5038206;28;20256;-86
2021/09/29 03:13:49;;;;;;;9.20;8.30;;;14.30;89.80;;;;;;5039347;28;20206;-86
2021/09/29 03:16:16;;;;;;;9.20;8.33;;;14.30;89.80;;;;;;5035432;28;20239;-86
2021/09/29 03:18:43;;;;;;;9.43;8.07;;;14.30;90.10;;;;;;5032858;28;20219;-86
2021/09/29 03:21:09;;;;;;;9.60;8.30;;;14.30;89.60;;;;;;5030567;28;20209;-86
2021/09/29 03:23:35;;;;;;;9.43;8.47;;;14.40;88.80;;;;;;5035474;28;20307;-86
2021/09/29 03:26:00;;;;;;;9.63;8.77;;;14.40;88.90;;;;;;5039975;28;20225;-87
2021/09/29 03:28:26;;;;;;;8.53;7.73;;;14.40;89.20;;;;;;5034810;28;20256;-87
2021/09/29 03:30:52;;;;;;;8.90;8.00;;;14.40;88.70;;;;;;5036698;28;20228;-87
2021/09/29 03:33:18;;;;;;;9.13;7.53;;;14.50;88.50;;;;;;5037861;28;20213;-86
2021/09/29 03:35:44;;;;;;;8.70;8.00;;;14.60;87.80;;;;;;5037143;28;20658;-87
2021/09/29 03:38:10;;;;;;;9.47;8.03;;;14.50;87.90;;;;;;5035705;28;20211;-86
2021/09/29 03:40:37;;;;;;;11.10;8.63;;;14.40;88.10;;;;;;5036643;28;20211;-86
2021/09/29 03:43:03;;;;;;;9.70;8.00;;;14.30;88.80;;;;;;5045503;28;20188;-87
2021/09/29 03:45:29;;;;;;;8.60;7.70;;;14.10;89.20;;;;;;5037082;28;20358;-86
2021/09/29 03:47:55;;;;;;;9.33;8.13;;;14.10;89.80;;;;;;5036988;28;20814;-86
2021/09/29 03:50:21;;;;;;;8.77;7.90;;;14.10;89.70;;;;;;5048021;28;20392;-87
2021/09/29 03:52:47;;;;;;;8.33;7.50;;;14.00;90.60;;;;;;5036272;28;20203;-87
2021/09/29 03:55:15;;;;;;;7.93;7.10;;;14.00;89.80;;;;;;5016030;28;20208;-86
2021/09/29 03:57:41;;;;;;;8.03;7.33;;;14.10;89.70;;;;;;5036882;28;20276;-86
2021/09/29 04:00:12;;;;;;;10.40;7.83;;;14.10;89.60;;;;;;5037456;28;20216;-87
2021/09/29 04:02:39;;;;;;;8.53;7.77;;;14.00;89.50;;;;;;5033515;28;20221;-87
2021/09/29 04:05:09;;;;;;;8.43;7.60;;;13.90;90.00;;;;;;5034689;28;20202;-87
2021/09/29 04:07:34;;;;;;;8.73;7.87;;;13.80;90.50;;;;;;5034520;28;20276;-86
2021/09/29 04:10:00;;;;;;;8.10;7.17;;;13.80;90.60;;;;;;5018101;28;20689;-86
2021/09/29 04:12:26;;;;;;;8.10;7.30;;;13.90;90.20;;;;;;5020720;28;20263;-88
2021/09/29 04:14:52;;;;;;;9.50;7.33;;;13.90;90.20;;;;;;5040938;28;20304;-87
2021/09/29 04:17:18;;;;;;;7.80;6.93;;;13.80;90.10;;;;;;5038956;28;20315;-87
2021/09/29 04:19:44;;;;;;;7.70;6.90;;;13.90;90.00;;;;;;5043302;28;20214;-86
2021/09/29 04:22:11;;;;;;;7.63;6.93;;;13.80;90.20;;;;;;5055373;28;20201;-86
2021/09/29 04:24:38;;;;;;;8.67;7.13;;;13.80;89.80;;;;;;5054502;28;20179;-86
2021/09/29 04:27:05;;;;;;;7.60;6.30;;;13.80;90.10;;;;;;5047277;28;20202;-89
2021/09/29 04:29:30;;;;;;;7.50;6.23;;;13.80;90.30;;;;;;5039524;28;20270;-87
2021/09/29 04:31:56;;;;;;;8.60;6.63;;;13.80;90.10;;;;;;5036151;28;20227;-87
2021/09/29 04:34:22;;;;;;;7.97;6.63;;;13.90;89.80;;;;;;5037510;28;20204;-86
2021/09/29 04:36:48;;;;;;;6.80;6.17;;;14.00;89.70;;;;;;5037040;28;20216;-88
2021/09/29 04:39:15;;;;;;;6.53;6.03;;;14.10;89.10;;;;;;5039334;28;20228;-88
2021/09/29 04:41:41;;;;;;;5.93;5.37;;;14.10;88.60;;;;;;5038771;28;20188;-88
2021/09/29 04:44:07;;;;;;;9.83;6.70;;;14.20;88.80;;;;;;5042961;28;20186;-88
2021/09/29 04:46:33;;;;;;;7.80;6.63;;;14.30;88.00;;;;;;5043458;28;20196;-87
2021/09/29 04:48:59;;;;;;;8.53;6.47;;;14.30;88.20;;;;;;5037066;28;20430;-87
2021/09/29 04:51:25;;;;;;;7.00;5.93;;;14.30;88.20;;;;;;5038017;28;20218;-87
2021/09/29 04:53:51;;;;;;;8.40;6.27;;;14.30;88.50;;;;;;5039611;28;20231;-88
2021/09/29 04:56:17;;;;;;;7.03;6.33;;;14.50;87.70;;;;;;5035714;28;20631;-87
2021/09/29 04:58:44;;;;;;;7.67;6.43;;;14.30;88.00;;;;;;5029841;28;20202;-87
2021/09/29 05:01:11;;;;;;;5.90;5.40;;;14.30;88.40;;;;;;5031510;28;20206;-87
2021/09/29 05:03:37;;;;;;;7.60;6.10;;;14.20;88.20;;;;;;5033788;28;20196;-87
2021/09/29 05:06:03;;;;;;;7.83;6.50;;;14.20;88.90;;;;;;5031857;28;20189;-88
2021/09/29 05:08:32;;;;;;;7.47;6.77;;;14.30;88.60;;;;;;5013116;28;20245;-87
2021/09/29 05:11:19;;;;;;;7.37;6.13;;;14.30;88.80;;;;;;5011644;28;20215;-87
2021/09/29 05:13:46;;;;;;;8.70;6.43;;;14.20;88.80;;;;;;5033861;28;20206;-87
2021/09/29 05:16:12;;;;;;;9.10;6.27;;;14.20;88.90;;;;;;5015584;28;20701;-88
2021/09/29 05:18:38;;;;;;;6.63;6.03;;;14.20;88.70;;;;;;5032739;28;20720;-86
2021/09/29 05:21:04;;;;;;;6.80;5.77;;;14.20;89.30;;;;;;5032798;28;20209;-86
2021/09/29 05:23:29;;;;;;;6.93;5.57;;;14.10;89.40;;;;;;5028739;28;20688;-88
2021/09/29 05:25:56;;;;;;;5.93;5.33;;;14.20;89.40;;;;;;5030156;28;20190;-88
2021/09/29 05:28:25;;;;;;;5.83;4.70;;;14.30;89.30;;;;;;5032037;28;20278;-86
2021/09/29 05:30:51;;;;;;;6.13;5.13;;;14.40;88.30;;;;;;4999536;28;20213;-85
2021/09/29 05:33:17;;;;;;;8.73;5.43;;;14.40;87.40;;;;;;5035277;28;20188;-85
2021/09/29 05:35:42;;;;;;;5.70;5.13;;;14.40;88.00;;;;;;5020006;28;20194;-85
2021/09/29 05:38:08;;;;;;;9.37;5.23;;;14.50;87.20;;;;;;5035797;28;20227;-85
2021/09/29 05:40:34;;;;;;;7.47;5.57;;;14.60;87.10;;;;;;5033646;28;20303;-85
2021/09/29 05:43:00;;;;;;;9.07;5.73;;;14.60;86.80;;;;;;5033463;28;20669;-85
2021/09/29 05:45:26;;;;;;;7.57;5.20;;;14.60;86.10;;;;;;5031298;28;20581;-86
2021/09/29 05:47:52;;;;;;;8.30;5.13;;;14.70;86.60;;;;;;5036024;28;20207;-86
2021/09/29 05:50:18;;;;;;;6.80;6.20;;;14.80;86.10;;;;;;5038161;28;20692;-86
2021/09/29 05:52:43;;;;;;;6.53;5.30;;;14.70;85.80;;;;;;5020192;28;20304;-86
2021/09/29 05:55:10;;;;;;;6.53;5.37;;;14.80;86.20;;;;;;5036690;28;20227;-86
2021/09/29 05:57:36;;;;;;;7.23;5.43;;;14.80;85.60;;;;;;5035583;28;20246;-86
2021/09/29 06:00:03;;;;;;;5.87;5.27;;;14.70;85.80;;;;;;5036620;28;20300;-86
2021/09/29 06:02:29;;;;;;;7.87;5.13;;;14.70;86.00;;;;;;5037757;28;20197;-86
2021/09/29 06:04:54;;;;;;;5.03;4.50;;;14.70;86.20;;;;;;5019136;28;20200;-86
2021/09/29 06:07:20;;;;;;;7.17;4.77;;;14.70;86.20;;;;;;5040308;28;20189;-86
2021/09/29 06:09:46;;;;;;;6.30;4.30;;;14.60;86.40;;;;;;5036388;28;20234;-86
2021/09/29 06:12:12;;;;;;;5.43;4.33;;;14.70;86.50;;;;;;5027838;28;20208;-86
2021/09/29 06:14:40;;;;;;;7.67;4.80;;;14.70;86.70;;;;;;5025870;28;20686;-85
2021/09/29 06:19:53;;;;;;;6.43;4.67;;;14.70;86.70;;;;;;5032281;28;20616;-86
2021/09/29 06:22:20;;;;;;;7.17;4.53;;;14.80;85.90;;;;;;5036998;28;20234;-85
2021/09/29 06:24:46;;;;;;;4.47;4.07;;;14.70;86.60;;;;;;5049381;28;20326;-85
2021/09/29 06:27:12;;;;;;;5.80;4.30;;;14.70;86.50;;;;;;5014197;28;20232;-84
2021/09/29 06:29:38;;;;;;;6.00;4.53;;;14.70;86.80;;;;;;5011637;28;20217;-84
2021/09/29 06:32:04;;;;;;;5.80;4.70;;;14.70;86.70;;;;;;5035657;28;20221;-85
2021/09/29 06:34:30;;;;;;;4.37;3.87;;;14.70;86.70;;;;;;5020014;28;20263;-85
2021/09/29 06:36:56;;;;;;;7.27;4.57;;;14.60;86.70;;;;;;5034810;28;20213;-84
2021/09/29 06:39:22;;;;;;;4.20;3.90;;;14.60;87.60;;;;;;5034753;28;20190;-84
2021/09/29 06:41:49;;;;;;;5.57;4.00;;;14.50;87.50;;;;;;5042078;28;20219;-83
2021/09/29 06:44:15;;;;;;;6.83;3.80;;;14.50;87.70;;;;;;5050450;28;20186;-83
2021/09/29 06:46:41;;;;;;;6.00;4.47;;;14.50;86.80;;;;;;5051920;28;20181;-83
2021/09/29 06:49:07;;;;;;;7.57;4.10;;;14.50;87.70;;;;;;5046243;28;20276;-83
2021/09/29 06:51:33;;;;;;;4.07;3.57;;;14.50;87.40;;;;;;5045865;28;20476;-83
2021/09/29 06:53:59;;;;;;;5.40;4.57;;;14.70;86.40;;;;;;5050849;28;20215;-83
2021/09/29 06:56:25;;;;;;;6.67;4.70;;;14.60;87.00;;;;;;5050011;28;20243;-83
2021/09/29 06:58:52;;;;;;;5.03;3.83;;;14.60;87.20;;;;;;5052408;28;20673;-83
2021/09/29 07:01:19;;;;;;;4.83;3.80;;;14.50;88.30;;;;;;5059260;28;20224;-83
2021/09/29 07:03:45;;;;;;;5.70;3.57;;;14.60;87.50;;;;;;5060517;28;20197;-83
2021/09/29 07:06:11;;;;;;;5.33;3.60;;;14.60;87.00;;;;;;5050663;28;20245;-83
2021/09/29 07:08:37;;;;;;;4.47;3.60;;;14.60;87.00;;;;;;5063268;28;20192;-83
2021/09/29 07:11:03;;;;;;;3.93;3.57;;;14.60;87.20;;;;;;5050077;28;20213;-83
2021/09/29 07:13:29;;;;;;;5.27;3.40;;;14.70;86.40;;;;;;5048695;28;20675;-83
2021/09/29 07:15:55;;;;;;;7.47;3.30;;;14.90;86.10;;;;;;5042158;28;20193;-84
2021/09/29 07:18:26;;;;;;;4.20;3.43;;;15.00;85.30;;;;;;5032470;28;20257;-83
2021/09/29 07:20:52;;;;;;;5.70;3.80;;;15.00;85.80;;;;;;5015923;28;20232;-84
2021/09/29 07:23:18;;;;;;;4.93;3.30;;;15.10;85.40;;;;;;5029618;28;20195;-86
2021/09/29 07:25:44;;;;;;;3.80;2.90;;;15.10;84.00;;;;;;5008810;28;20194;-86
2021/09/29 07:28:09;;;;;;;6.67;3.57;;;15.20;83.40;;;;;;5030241;28;20239;-83
2021/09/29 07:30:36;;;;;;;8.67;3.00;;;15.40;83.90;;;;;;5035254;28;20234;-86
2021/09/29 07:33:03;;;;;;;4.93;3.23;;;15.30;83.30;;;;;;5035042;28;20260;-84
2021/09/29 07:35:30;;;;;;;4.90;3.03;;;15.40;82.10;;;;;;5030827;28;20250;-86
2021/09/29 07:37:56;;;;;;;4.70;3.10;;;15.50;82.50;;;;;;5021603;28;20422;-84
2021/09/29 07:40:22;;;;;;;4.47;3.40;;;15.60;81.60;;;;;;5049890;28;20220;-84
2021/09/29 07:42:48;;;;;;;3.67;2.97;;;15.70;80.80;;;;;;5025584;28;20623;-84
2021/09/29 07:45:13;;;;;;;3.93;3.00;;;15.60;80.90;;;;;;5018658;28;20188;-84
2021/09/29 07:47:39;;;;;;;5.83;2.77;;;15.60;81.40;;;;;;5036906;28;20189;-84
2021/09/29 07:50:07;;;;;;;4.00;3.00;;;15.60;82.40;;;;;;5034934;28;20371;-84
2021/09/29 07:52:33;;;;;;;2.90;2.33;;;15.70;82.10;;;;;;5015893;28;20675;-84
2021/09/29 07:54:59;;;;;;;5.77;3.03;;;15.80;81.70;;;;;;5037718;28;20217;-84
2021/09/29 07:57:25;;;;;;;3.30;3.00;;;15.90;80.50;;;;;;5033733;28;20280;-84
2021/09/29 07:59:50;;;;;;;6.00;2.87;;;16.00;81.00;;;;;;5016719;28;20210;-84
2021/09/29 08:02:16;;;;;;;5.73;2.60;;;16.20;80.50;;;;;;5021120;28;20382;-85
2021/09/29 08:04:42;;;;;;;3.67;2.60;;;16.50;78.00;;;;;;5038642;28;20193;-84
2021/09/29 08:07:08;;;;;;;5.33;2.60;;;16.50;77.70;;;;;;5039242;28;20220;-84
2021/09/29 08:09:34;;;;;;;3.53;2.27;;;16.60;77.80;;;;;;5039538;28;20274;-84
2021/09/29 08:12:00;;;;;;;3.70;2.17;;;16.50;77.80;;;;;;5038256;28;20193;-83
2021/09/29 08:14:26;;;;;;;3.67;2.43;;;16.40;78.60;;;;;;5037812;28;20204;-85
2021/09/29 08:16:51;;;;;;;3.60;2.90;;;16.50;78.70;;;;;;5037050;28;20226;-85
2021/09/29 08:19:18;;;;;;;2.53;2.10;;;16.60;78.20;;;;;;5037659;28;20177;-84
2021/09/29 08:21:46;;;;;;;5.30;2.80;;;16.50;78.70;;;;;;5037929;28;20270;-84
2021/09/29 08:27:09;;;;;;;6.17;2.70;;;16.50;77.70;;;;;;5019877;28;20198;-83
2021/09/29 08:37:58;;;;;;;4.47;2.70;;;17.10;76.80;;;;;;5039153;28;20207;-85
2021/09/29 08:40:12;;;;;;;4.20;2.50;;;17.10;77.00;;;;;;5022467;28;20247;-85
2021/09/29 08:45:24;;;;;;;5.97;2.60;;;17.40;74.50;;;;;;5035894;28;20185;-85
2021/09/29 08:48:24;;;;;;;4.33;2.40;;;17.40;74.20;;;;;;5037860;28;20205;-84
2021/09/29 09:14:59;;;;;;;3.97;2.47;;;17.60;70.80;;;;;;5036022;28;20203;-86
2021/09/29 09:17:34;;;;;;;5.33;2.60;;;17.60;72.60;;;;;;5036662;28;20754;-85
2021/09/29 09:20:13;;;;;;;3.47;2.30;;;17.40;74.70;;;;;;5041116;28;20219;-87
2021/09/29 09:22:39;;;;;;;4.53;3.00;;;17.20;74.80;;;;;;5036626;28;20187;-85
2021/09/29 09:25:06;;;;;;;4.70;2.70;;;17.10;75.80;;;;;;5036783;28;20217;-87
2021/09/29 09:27:46;;;;;;;4.20;2.50;;;17.10;76.00;;;;;;5035116;28;20193;-86
2021/09/29 09:30:34;;;;;;;6.37;2.30;;;17.00;76.80;;;;;;5017222;28;20222;-86
2021/09/29 09:33:00;;;;;;;4.43;2.90;;;17.00;76.20;;;;;;5020888;28;20192;-86
2021/09/29 09:35:40;;;;;;;5.27;2.57;;;17.10;75.80;;;;;;5014711;28;20263;-86
2021/09/29 09:38:23;;;;;;;2.77;2.20;;;17.00;74.00;;;;;;5034162;28;20580;-86
2021/09/29 09:40:57;;;;;;;8.53;2.40;;;17.00;73.10;;;;;;5034930;28;20222;-86
2021/09/29 09:43:28;;;;;;;4.70;2.20;;;17.00;78.10;;;;;;5003435;28;20237;-86
2021/09/29 09:45:55;;;;;;;4.20;2.33;;;17.00;77.80;;;;;;5029415;28;20247;-86
2021/09/29 09:48:22;;;;;;;5.43;4.77;;;17.10;78.60;;;;;;5013597;28;20193;-85
2021/09/29 09:50:55;;;;;;;5.97;2.60;;;17.20;77.30;;;;;;5034958;28;20220;-86
2021/09/29 09:53:21;;;;;;;7.37;2.70;;;17.30;77.80;;;;;;5035919;28;20241;-86
2021/09/29 09:55:47;;;;;;;3.73;2.47;;;17.20;77.60;;;;;;5032389;28;20290;-86
2021/09/29 09:58:13;;;;;;;6.80;2.40;;;17.10;76.50;;;;;;5036717;28;20205;-86
2021/09/29 10:00:39;;;;;;;6.10;2.50;;;17.00;76.60;;;;;;5028133;28;20221;-85
2021/09/29 10:03:05;;;;;;;4.63;2.10;;;17.10;76.00;;;;;;5031396;28;20787;-85
2021/09/29 10:05:31;;;;;;;3.93;2.30;;;17.20;73.20;;;;;;5041265;28;20193;-86
2021/09/29 10:08:02;;;;;;;5.93;2.30;;;17.40;74.50;;;;;;5025943;28;20191;-85
2021/09/29 10:10:53;;;;;;;2.10;2.00;;;17.40;73.00;;;;;;5036482;28;20203;-85
2021/09/29 10:27:56;;;;;;;5.67;2.47;;;18.40;66.70;;;;;;5022514;28;20259;-85
2021/09/29 10:30:38;;;;;;;4.20;2.00;;;18.60;66.70;;;;;;5047772;28;20217;-85
2021/09/29 10:33:06;;;;;;;3.20;1.90;;;18.80;66.30;;;;;;5047557;28;20600;-86
2021/09/29 10:35:47;;;;;;;3.47;1.90;;;19.20;64.50;;;;;;5035495;28;20199;-86
2021/09/29 10:44:21;;;;;;;5.60;2.23;;;19.30;62.20;;;;;;5038635;28;20659;-86
2021/09/29 10:46:41;;;;;;;4.78;2.10;;;19.60;61.60;;;;;;5032260;28;20198;-86
2021/09/29 11:30:55;;;;;;;2.90;2.27;;;18.20;69.60;;;;;;5038814;28;20250;-84
2021/09/29 11:33:30;;;;;;;4.27;2.70;;;18.00;73.10;;;;;;5003349;28;20189;-87
2021/09/29 11:36:21;;;;;;;5.57;2.70;;;17.80;76.90;;;;;;5028099;28;20187;-86
2021/09/29 11:39:00;;;;;;;3.43;2.00;;;17.50;79.00;;;;;;5024882;28;21038;-86
2021/09/29 12:09:05;;;;;;;5.33;2.57;;;18.30;90.90;;;;;;5035324;28;20211;-86
2021/09/29 12:14:26;;;;;;;3.47;2.10;;;18.90;87.00;;;;;;5022090;28;20313;-87
2021/09/29 12:16:51;;;;;;;5.90;2.88;;;18.60;84.40;;;;;;5010378;28;20253;-88
2021/09/29 12:19:41;;;;;;;4.80;2.23;;;18.30;84.30;;;;;;5028692;28;20224;-85
2021/09/29 12:22:18;;;;;;;3.80;2.63;;;17.90;85.30;;;;;;5032277;28;20194;-86
2021/09/29 12:24:50;;;;;;;7.10;2.60;;;17.60;86.50;;;;;;5033608;28;20583;-86
2021/09/29 12:27:34;;;;;;;5.32;2.35;;;17.50;88.10;;;;;;5039314;28;20214;-85
2021/09/29 12:30:43;;;;;;;7.40;2.43;;;17.50;88.20;;;;;;5051457;28;20255;-85
2021/09/29 12:35:44;;;;;;;6.10;2.60;;;17.50;89.70;;;;;;5033898;28;20701;-85
2021/09/29 12:38:11;;;;;;;4.00;2.10;;;17.50;89.30;;;;;;5031731;28;20221;-86
2021/09/29 12:40:39;;;;;;;2.90;2.28;;;17.60;88.40;;;;;;5032506;28;20219;-86
2021/09/29 12:43:11;;;;;;;2.72;2.10;;;17.60;88.90;;;;;;5020141;28;20251;-86
2021/09/29 12:45:41;;;;;;;2.60;1.88;;;17.60;88.40;;;;;;5032072;28;20187;-86
2021/09/29 12:48:09;;;;;;;2.27;1.70;;;17.30;85.40;;;;;;5036881;28;20200;-87
2021/09/29 12:50:55;;;;;;;6.67;2.07;;;16.80;84.10;;;;;;5039821;28;20207;-87
2021/09/29 12:53:30;;;;;;;1.50;1.40;;;16.20;87.20;;;;;;5018079;28;20198;-90
2021/09/29 12:56:00;;;;;;;4.73;1.50;;;15.50;88.90;;;;;;5019294;28;20271;-87
2021/09/29 12:58:29;;;;;;;2.80;1.30;;;15.20;92.10;;;;;;5032440;28;20212;-87
2021/09/29 13:00:57;;;;;;;2.43;1.20;;;14.90;90.30;;;;;;5040732;28;20279;-87
2021/09/29 13:03:23;;;;;;;2.30;1.30;;;14.60;88.30;;;;;;5035327;28;20572;-87
2021/09/29 13:05:49;;;;;;;1.30;1.17;;;14.60;88.30;;;;;;5032905;28;20192;-87
2021/09/29 13:08:15;;;;;;;1.30;1.20;;;14.40;88.70;;;;;;5034245;28;20199;-87
2021/09/29 13:10:42;;;;;;;1.17;1.07;;;14.20;91.00;;;;;;5040306;28;20223;-87
2021/09/29 13:13:10;;;;;;;1.00;1.00;;;14.10;89.60;;;;;;5039132;28;20862;-87
2021/09/29 13:15:41;;;;;;;1.47;1.37;;;14.00;92.10;;;;;;5019953;28;20196;-86
2021/09/29 13:18:11;;;;;;;1.77;1.50;;;14.00;92.70;;;;;;5027826;28;20207;-86
2021/09/29 13:20:38;;;;;;;1.40;1.30;;;14.00;91.60;;;;;;5013243;28;20608;-86
2021/09/29 13:23:25;;;;;;;2.83;1.40;;;14.10;92.90;;;;;;5039490;28;20185;-86
2021/09/29 13:36:39;;;;;;;1.97;1.40;;;14.40;93.00;;;;;;5024220;28;20246;-87
2021/09/29 13:39:10;;;;;;;1.37;1.27;;;14.40;92.00;;;;;;5040299;28;20212;-87
2021/09/29 13:41:54;;;;;;;1.43;1.33;;;14.40;90.30;;;;;;5021408;28;20251;-87
2021/09/29 13:44:21;;;;;;;1.23;1.23;;;14.50;91.80;;;;;;5000576;28;20194;-86
2021/09/29 13:46:47;;;;;;;1.97;1.30;;;14.50;91.30;;;;;;5027016;28;20188;-86
2021/09/29 13:49:16;;;;;;;2.40;1.50;;;14.60;91.30;;;;;;5002350;28;20198;-86
2021/09/29 13:51:50;;;;;;;4.13;1.50;;;14.70;91.50;;;;;;5034437;28;20194;-87
2021/09/29 13:54:20;;;;;;;1.33;1.30;;;14.70;92.10;;;;;;5012020;28;20261;-87
2021/09/29 14:29:11;;;;;;;3.13;1.90;;;15.10;93.10;;;;;;5031380;28;20234;-85
2021/09/29 14:34:06;;;;;;;2.30;1.77;;;15.20;94.20;;;;;;4994898;28;20297;-88
2021/09/29 14:36:35;;;;;;;2.20;1.80;;;15.50;93.80;;;;;;5027604;28;20681;-89
2021/09/29 14:39:01;;;;;;;2.10;1.90;;;15.60;91.80;;;;;;4992456;28;20549;-86
2021/09/29 14:41:26;;;;;;;2.37;1.70;;;15.50;92.50;;;;;;5027917;28;20211;-85
2021/09/29 14:43:53;;;;;;;1.63;1.50;;;15.30;91.60;;;;;;5012158;28;20271;-86
2021/09/29 14:46:19;;;;;;;1.70;1.60;;;15.20;91.30;;;;;;5027932;28;20720;-86
2021/09/29 14:48:45;;;;;;;3.03;1.67;;;15.10;90.00;;;;;;5029505;28;20189;-87
2021/09/29 14:51:13;;;;;;;3.00;1.73;;;15.10;91.20;;;;;;5031754;28;20587;-88
2021/09/29 14:53:40;;;;;;;2.13;1.50;;;15.10;93.30;;;;;;5030602;28;20200;-87
2021/09/29 14:56:08;;;;;;;1.87;1.70;;;15.10;93.90;;;;;;5010171;28;20217;-88
2021/09/29 14:58:38;;;;;;;1.57;1.47;;;15.10;93.90;;;;;;5024175;28;20221;-86
2021/09/29 15:01:06;;;;;;;2.10;1.60;;;15.20;93.60;;;;;;5031052;28;20207;-88
2021/09/29 15:03:32;;;;;;;1.80;1.70;;;15.20;94.30;;;;;;5033655;28;20670;-87
2021/09/29 15:05:58;;;;;;;1.60;1.50;;;15.10;93.50;;;;;;5010922;28;20294;-87
2021/09/29 15:08:27;;;;;;;1.90;1.70;;;15.20;92.90;;;;;;5029946;28;20360;-86
2021/09/29 15:10:53;;;;;;;3.73;2.00;;;15.10;93.00;;;;;;5011469;28;20226;-86
2021/09/29 15:13:27;;;;;;;2.43;1.50;;;15.20;92.40;;;;;;5028280;28;20265;-87
2021/09/29 15:16:04;;;;;;;2.03;1.60;;;15.00;92.50;;;;;;5030095;28;20706;-87
2021/09/29 15:19:04;;;;;;;1.70;1.60;;;15.10;92.90;;;;;;5025992;28;20212;-87
2021/09/29 15:24:45;;;;;;;2.13;1.80;;;15.70;90.70;;;;;;5031827;28;20679;-86
2021/09/29 15:30:28;;;;;;;2.97;1.93;;;16.60;86.80;;;;;;5001855;28;20252;-87
2021/09/29 15:48:32;;;;;;;1.70;1.33;;;16.80;80.10;;;;;;5047577;28;20200;-86
2021/09/29 15:51:08;;;;;;;2.00;1.60;;;16.80;81.30;;;;;;5050534;28;20207;-87
2021/09/29 15:56:07;;;;;;;2.03;1.83;;;16.00;83.20;;;;;;5034570;28;20665;-87
2021/09/29 15:58:54;;;;;;;2.33;1.60;;;16.00;84.60;;;;;;5046275;28;20212;-86
2021/09/29 16:01:38;;;;;;;6.70;1.80;;;15.80;85.60;;;;;;5038566;28;20235;-86
2021/09/29 16:06:44;;;;;;;1.60;1.50;;;15.50;85.90;;;;;;5012838;28;20792;-87
2021/09/29 16:17:33;;;;;;;2.07;1.50;;;15.80;84.10;;;;;;5026571;28;20260;-88
2021/09/29 16:23:30;;;;;;;2.73;1.70;;;16.00;82.10;;;;;;5040706;28;20210;-87
2021/09/29 16:31:13;;;;;;;1.70;1.60;;;16.10;81.40;;;;;;5020279;28;20242;-87
2021/09/29 16:36:16;;;;;;;1.60;1.50;;;16.10;79.50;;;;;;5043194;28;20256;-87
2021/09/29 16:38:44;;;;;;;1.80;1.67;;;15.90;79.20;;;;;;5041309;28;20183;-87
2021/09/29 16:41:15;;;;;;;3.47;2.03;;;15.70;80.10;;;;;;5025633;28;20213;-86